sensor_id;sensor_type;location;lat;lon;timestamp;pressure;altitude;pressure_sealevel;temperature;humidity
977;BME280;477;51.436;7.292;2024-01-30T00:01:11;101835.09;;;9.18;100.00
977;BME280;477;51.436;7.292;2024-01-30T00:03:40;101839.44;;;9.18;100.00
977;BME280;477;51.436;7.292;2024-01-30T00:06:09;101838.56;;;9.17;100.00
977;BME280;477;51.436;7.292;2024-01-30T00:08:37;101835.09;;;9.20;100.00
977;BME280;477;51.436;7.292;2024-01-30T00:11:08;101838.66;;;9.12;100.00
977;BME280;477;51.436;7.292;2024-01-30T00:13:36;101835.50;;;8.95;100.00
977;BME280;477;51.436;7.292;2024-01-30T00:16:07;101835.94;;;9.19;100.00
977;BME280;477;51.436;7.292;2024-01-30T00:18:36;101837.28;;;8.92;100.00
977;BME280;477;51.436;7.292;2024-01-30T00:21:06;101844.69;;;8.62;100.00
977;BME280;477;51.436;7.292;2024-01-30T00:23:34;101834.31;;;8.59;100.00
977;BME280;477;51.436;7.292;2024-01-30T00:26:03;101835.34;;;9.03;100.00
977;BME280;477;51.436;7.292;2024-01-30T00:28:33;101831.38;;;8.82;100.00
977;BME280;477;51.436;7.292;2024-01-30T00:31:03;101836.38;;;8.94;100.00
977;BME280;477;51.436;7.292;2024-01-30T00:33:33;101837.78;;;8.59;100.00
977;BME280;477;51.436;7.292;2024-01-30T00:36:02;101839.88;;;8.33;100.00
977;BME280;477;51.436;7.292;2024-01-30T00:38:30;101829.63;;;8.84;100.00
977;BME280;477;51.436;7.292;2024-01-30T00:41:02;101819.72;;;8.52;100.00
977;BME280;477;51.436;7.292;2024-01-30T00:43:31;101826.78;;;8.42;100.00
977;BME280;477;51.436;7.292;2024-01-30T00:45:59;101817.03;;;8.58;100.00
977;BME280;477;51.436;7.292;2024-01-30T00:48:28;101818.59;;;8.70;100.00
977;BME280;477;51.436;7.292;2024-01-30T00:50:58;101819.09;;;8.36;100.00
977;BME280;477;51.436;7.292;2024-01-30T00:53:27;101821.28;;;8.63;100.00
977;BME280;477;51.436;7.292;2024-01-30T00:55:56;101817.00;;;8.59;100.00
977;BME280;477;51.436;7.292;2024-01-30T00:58:24;101814.31;;;8.66;100.00
977;BME280;477;51.436;7.292;2024-01-30T01:00:53;101819.84;;;8.44;100.00
977;BME280;477;51.436;7.292;2024-01-30T01:03:22;101824.22;;;8.39;100.00
977;BME280;477;51.436;7.292;2024-01-30T01:05:53;101817.13;;;8.52;100.00
977;BME280;477;51.436;7.292;2024-01-30T01:08:25;101823.69;;;8.16;100.00
977;BME280;477;51.436;7.292;2024-01-30T01:10:54;101818.16;;;8.40;100.00
977;BME280;477;51.436;7.292;2024-01-30T01:13:23;101822.53;;;8.38;100.00
977;BME280;477;51.436;7.292;2024-01-30T01:15:51;101819.31;;;8.18;100.00
977;BME280;477;51.436;7.292;2024-01-30T01:18:21;101814.69;;;8.41;100.00
977;BME280;477;51.436;7.292;2024-01-30T01:20:50;101813.28;;;8.17;100.00
977;BME280;477;51.436;7.292;2024-01-30T01:23:18;101809.94;;;8.07;100.00
977;BME280;477;51.436;7.292;2024-01-30T01:25:50;101815.00;;;8.17;100.00
977;BME280;477;51.436;7.292;2024-01-30T01:28:18;101810.75;;;8.11;100.00
977;BME280;477;51.436;7.292;2024-01-30T01:30:48;101810.75;;;8.11;100.00
977;BME280;477;51.436;7.292;2024-01-30T01:33:18;101810.03;;;7.98;100.00
977;BME280;477;51.436;7.292;2024-01-30T01:35:48;101820.09;;;8.23;100.00
977;BME280;477;51.436;7.292;2024-01-30T01:38:19;101816.28;;;7.85;100.00
977;BME280;477;51.436;7.292;2024-01-30T01:40:49;101822.31;;;7.89;100.00
977;BME280;477;51.436;7.292;2024-01-30T01:43:18;101814.47;;;7.92;100.00
977;BME280;477;51.436;7.292;2024-01-30T01:45:47;101816.13;;;7.97;100.00
977;BME280;477;51.436;7.292;2024-01-30T01:48:16;101819.47;;;8.05;100.00
977;BME280;477;51.436;7.292;2024-01-30T01:50:44;101815.66;;;7.65;100.00
977;BME280;477;51.436;7.292;2024-01-30T01:53:14;101818.09;;;7.78;100.00
977;BME280;477;51.436;7.292;2024-01-30T01:55:45;101811.66;;;8.08;100.00
977;BME280;477;51.436;7.292;2024-01-30T01:58:21;101801.56;;;7.89;100.00
977;BME280;477;51.436;7.292;2024-01-30T02:00:53;101803.41;;;7.79;100.00
977;BME280;477;51.436;7.292;2024-01-30T02:03:22;101806.16;;;8.31;100.00
977;BME280;477;51.436;7.292;2024-01-30T02:05:51;101806.66;;;7.93;100.00
977;BME280;477;51.436;7.292;2024-01-30T02:08:20;101797.31;;;7.83;100.00
977;BME280;477;51.436;7.292;2024-01-30T02:10:48;101799.91;;;7.83;100.00
977;BME280;477;51.436;7.292;2024-01-30T02:13:23;101799.31;;;8.26;100.00
977;BME280;477;51.436;7.292;2024-01-30T02:15:52;101803.06;;;8.05;100.00
977;BME280;477;51.436;7.292;2024-01-30T02:18:21;101792.66;;;8.06;100.00
977;BME280;477;51.436;7.292;2024-01-30T02:20:51;101791.53;;;7.59;100.00
977;BME280;477;51.436;7.292;2024-01-30T02:23:24;101784.56;;;7.63;100.00
977;BME280;477;51.436;7.292;2024-01-30T02:25:54;101793.22;;;7.61;100.00
977;BME280;477;51.436;7.292;2024-01-30T02:28:24;101790.19;;;7.99;100.00
977;BME280;477;51.436;7.292;2024-01-30T02:30:52;101786.31;;;7.63;100.00
977;BME280;477;51.436;7.292;2024-01-30T02:33:21;101787.69;;;7.91;100.00
977;BME280;477;51.436;7.292;2024-01-30T02:35:50;101790.84;;;8.13;100.00
977;BME280;477;51.436;7.292;2024-01-30T02:38:19;101783.44;;;7.85;100.00
977;BME280;477;51.436;7.292;2024-01-30T02:40:49;101784.59;;;7.60;100.00
977;BME280;477;51.436;7.292;2024-01-30T02:43:18;101777.56;;;7.73;100.00
977;BME280;477;51.436;7.292;2024-01-30T02:45:47;101780.81;;;7.87;100.00
977;BME280;477;51.436;7.292;2024-01-30T02:48:16;101774.78;;;7.85;100.00
977;BME280;477;51.436;7.292;2024-01-30T02:50:45;101776.88;;;7.57;100.00
977;BME280;477;51.436;7.292;2024-01-30T02:53:14;101774.50;;;7.37;100.00
977;BME280;477;51.436;7.292;2024-01-30T02:55:48;101771.94;;;7.34;100.00
977;BME280;477;51.436;7.292;2024-01-30T02:58:17;101764.78;;;7.57;100.00
977;BME280;477;51.436;7.292;2024-01-30T03:00:48;101771.72;;;7.54;100.00
977;BME280;477;51.436;7.292;2024-01-30T03:03:16;101760.13;;;7.10;100.00
977;BME280;477;51.436;7.292;2024-01-30T03:05:46;101754.41;;;7.56;100.00
977;BME280;477;51.436;7.292;2024-01-30T03:08:15;101762.22;;;7.54;100.00
977;BME280;477;51.436;7.292;2024-01-30T03:10:44;101750.22;;;7.44;100.00
977;BME280;477;51.436;7.292;2024-01-30T03:13:15;101754.66;;;7.36;100.00
977;BME280;477;51.436;7.292;2024-01-30T03:15:43;101743.41;;;7.37;100.00
977;BME280;477;51.436;7.292;2024-01-30T03:18:12;101742.59;;;7.32;100.00
977;BME280;477;51.436;7.292;2024-01-30T03:20:41;101738.78;;;7.61;100.00
977;BME280;477;51.436;7.292;2024-01-30T03:23:09;101738.06;;;7.52;100.00
977;BME280;477;51.436;7.292;2024-01-30T03:25:38;101737.28;;;7.41;100.00
977;BME280;477;51.436;7.292;2024-01-30T03:28:07;101736.81;;;7.09;100.00
977;BME280;477;51.436;7.292;2024-01-30T03:30:37;101735.69;;;7.32;100.00
977;BME280;477;51.436;7.292;2024-01-30T03:33:06;101731.44;;;7.25;100.00
977;BME280;477;51.436;7.292;2024-01-30T03:35:35;101727.16;;;7.23;100.00
977;BME280;477;51.436;7.292;2024-01-30T03:38:04;101728.78;;;7.33;100.00
977;BME280;477;51.436;7.292;2024-01-30T03:40:32;101726.09;;;7.39;100.00
977;BME280;477;51.436;7.292;2024-01-30T03:43:02;101731.06;;;7.59;100.00
977;BME280;477;51.436;7.292;2024-01-30T03:45:30;101722.72;;;7.34;100.00
977;BME280;477;51.436;7.292;2024-01-30T03:48:00;101727.78;;;7.43;100.00
977;BME280;477;51.436;7.292;2024-01-30T03:50:29;101722.66;;;7.39;100.00
977;BME280;477;51.436;7.292;2024-01-30T03:52:58;101724.00;;;7.67;100.00
977;BME280;477;51.436;7.292;2024-01-30T03:55:26;101736.53;;;7.33;100.00
977;BME280;477;51.436;7.292;2024-01-30T03:57:58;101722.69;;;7.36;100.00
977;BME280;477;51.436;7.292;2024-01-30T04:00:27;101723.31;;;7.57;100.00
977;BME280;477;51.436;7.292;2024-01-30T04:02:57;101718.84;;;7.69;100.00
977;BME280;477;51.436;7.292;2024-01-30T04:05:29;101714.91;;;7.37;100.00
977;BME280;477;51.436;7.292;2024-01-30T04:07:59;101719.78;;;7.62;100.00
977;BME280;477;51.436;7.292;2024-01-30T04:10:28;101721.03;;;7.30;100.00
977;BME280;477;51.436;7.292;2024-01-30T04:12:57;101714.78;;;7.48;100.00
977;BME280;477;51.436;7.292;2024-01-30T04:15:25;101710.63;;;7.33;100.00
977;BME280;477;51.436;7.292;2024-01-30T04:17:56;101716.69;;;7.32;100.00
977;BME280;477;51.436;7.292;2024-01-30T04:20:25;101721.75;;;7.43;100.00
977;BME280;477;51.436;7.292;2024-01-30T04:22:55;101707.25;;;7.28;100.00
977;BME280;477;51.436;7.292;2024-01-30T04:25:25;101717.38;;;7.46;100.00
977;BME280;477;51.436;7.292;2024-01-30T04:27:53;101714.09;;;7.32;100.00
977;BME280;477;51.436;7.292;2024-01-30T04:30:23;101709.44;;;7.60;100.00
977;BME280;477;51.436;7.292;2024-01-30T04:32:51;101707.84;;;7.50;100.00
977;BME280;477;51.436;7.292;2024-01-30T04:35:20;101703.91;;;7.18;100.00
977;BME280;477;51.436;7.292;2024-01-30T04:37:53;101700.25;;;7.35;100.00
977;BME280;477;51.436;7.292;2024-01-30T04:40:23;101696.25;;;7.04;100.00
977;BME280;477;51.436;7.292;2024-01-30T04:42:52;101701.03;;;7.41;100.00
977;BME280;477;51.436;7.292;2024-01-30T04:45:21;101702.31;;;7.06;100.00
977;BME280;477;51.436;7.292;2024-01-30T04:47:49;101698.66;;;7.26;100.00
977;BME280;477;51.436;7.292;2024-01-30T04:50:18;101706.47;;;7.18;100.00
977;BME280;477;51.436;7.292;2024-01-30T04:52:47;101697.19;;;7.00;100.00
977;BME280;477;51.436;7.292;2024-01-30T04:55:16;101697.16;;;7.03;100.00
977;BME280;477;51.436;7.292;2024-01-30T04:57:49;101699.56;;;7.19;100.00
977;BME280;477;51.436;7.292;2024-01-30T05:00:20;101697.84;;;7.18;100.00
977;BME280;477;51.436;7.292;2024-01-30T05:02:51;101691.75;;;7.23;100.00
977;BME280;477;51.436;7.292;2024-01-30T05:05:20;101690.03;;;7.22;100.00
977;BME280;477;51.436;7.292;2024-01-30T05:07:49;101689.94;;;7.30;100.00
977;BME280;477;51.436;7.292;2024-01-30T05:10:18;101693.69;;;7.06;100.00
977;BME280;477;51.436;7.292;2024-01-30T05:12:47;101685.19;;;6.92;100.00
977;BME280;477;51.436;7.292;2024-01-30T05:15:17;101687.59;;;7.09;100.00
977;BME280;477;51.436;7.292;2024-01-30T05:17:45;101690.25;;;7.02;100.00
977;BME280;477;51.436;7.292;2024-01-30T05:20:14;101684.19;;;7.03;100.00
977;BME280;477;51.436;7.292;2024-01-30T05:22:44;101692.03;;;6.97;100.00
977;BME280;477;51.436;7.292;2024-01-30T05:25:13;101692.81;;;7.07;100.00
977;BME280;477;51.436;7.292;2024-01-30T05:27:42;101692.94;;;6.93;100.00
977;BME280;477;51.436;7.292;2024-01-30T05:30:13;101698.84;;;7.07;100.00
977;BME280;477;51.436;7.292;2024-01-30T05:32:43;101692.69;;;7.15;100.00
977;BME280;477;51.436;7.292;2024-01-30T05:35:12;101690.34;;;6.95;100.00
977;BME280;477;51.436;7.292;2024-01-30T05:37:41;101685.59;;;6.53;100.00
977;BME280;477;51.436;7.292;2024-01-30T05:40:11;101687.16;;;6.70;100.00
977;BME280;477;51.436;7.292;2024-01-30T05:42:40;101689.56;;;6.87;100.00
977;BME280;477;51.436;7.292;2024-01-30T05:45:09;101694.09;;;6.65;100.00
977;BME280;477;51.436;7.292;2024-01-30T05:47:39;101687.66;;;7.04;100.00
977;BME280;477;51.436;7.292;2024-01-30T05:50:10;101683.56;;;6.83;100.00
977;BME280;477;51.436;7.292;2024-01-30T05:52:40;101692.03;;;7.00;100.00
977;BME280;477;51.436;7.292;2024-01-30T05:55:09;101688.00;;;6.73;100.00
977;BME280;477;51.436;7.292;2024-01-30T05:57:39;101689.56;;;6.87;100.00
977;BME280;477;51.436;7.292;2024-01-30T06:00:08;101682.59;;;6.92;100.00
977;BME280;477;51.436;7.292;2024-01-30T06:02:37;101691.31;;;6.83;100.00
977;BME280;477;51.436;7.292;2024-01-30T06:05:09;101692.19;;;6.82;100.00
977;BME280;477;51.436;7.292;2024-01-30T06:07:38;101693.06;;;6.81;100.00
977;BME280;477;51.436;7.292;2024-01-30T06:10:08;101692.03;;;6.97;100.00
977;BME280;477;51.436;7.292;2024-01-30T06:12:38;101695.38;;;7.10;100.00
977;BME280;477;51.436;7.292;2024-01-30T06:15:08;101688.50;;;7.04;100.00
977;BME280;477;51.436;7.292;2024-01-30T06:17:38;101687.69;;;6.99;100.00
977;BME280;477;51.436;7.292;2024-01-30T06:20:11;101692.38;;;6.64;100.00
977;BME280;477;51.436;7.292;2024-01-30T06:22:41;101689.53;;;6.88;100.00
977;BME280;477;51.436;7.292;2024-01-30T06:25:09;101683.72;;;6.69;100.00
977;BME280;477;51.436;7.292;2024-01-30T06:27:39;101692.25;;;6.79;100.00
977;BME280;477;51.436;7.292;2024-01-30T06:30:09;101690.25;;;7.02;100.00
977;BME280;477;51.436;7.292;2024-01-30T06:32:37;101692.13;;;6.90;100.00
977;BME280;477;51.436;7.292;2024-01-30T06:35:06;101688.84;;;6.74;100.00
977;BME280;477;51.436;7.292;2024-01-30T06:37:37;101683.47;;;6.92;100.00
977;BME280;477;51.436;7.292;2024-01-30T06:40:07;101687.00;;;6.85;100.00
977;BME280;477;51.436;7.292;2024-01-30T06:42:36;101687.63;;;7.07;100.00
977;BME280;477;51.436;7.292;2024-01-30T06:45:06;101682.69;;;6.86;100.00
977;BME280;477;51.436;7.292;2024-01-30T06:47:35;101675.78;;;6.85;100.00
977;BME280;477;51.436;7.292;2024-01-30T06:50:06;101682.53;;;6.98;100.00
977;BME280;477;51.436;7.292;2024-01-30T06:52:36;101674.78;;;6.98;100.00
977;BME280;477;51.436;7.292;2024-01-30T06:55:07;101678.09;;;7.11;100.00
977;BME280;477;51.436;7.292;2024-01-30T06:57:36;101676.31;;;7.16;100.00
977;BME280;477;51.436;7.292;2024-01-30T07:00:06;101678.81;;;7.20;100.00
977;BME280;477;51.436;7.292;2024-01-30T07:02:35;101680.63;;;7.17;100.00
977;BME280;477;51.436;7.292;2024-01-30T07:05:06;101680.44;;;7.30;100.00
977;BME280;477;51.436;7.292;2024-01-30T07:07:37;101683.78;;;7.39;100.00
977;BME280;477;51.436;7.292;2024-01-30T07:10:07;101682.03;;;7.41;100.00
977;BME280;477;51.436;7.292;2024-01-30T07:12:36;101689.72;;;7.48;100.00
977;BME280;477;51.436;7.292;2024-01-30T07:15:06;101682.69;;;7.58;100.00
977;BME280;477;51.436;7.292;2024-01-30T07:17:37;101678.59;;;7.39;100.00
977;BME280;477;51.436;7.292;2024-01-30T07:20:07;101684.50;;;7.50;100.00
977;BME280;477;51.436;7.292;2024-01-30T07:22:43;101692.94;;;7.66;100.00
977;BME280;477;51.436;7.292;2024-01-30T07:25:13;101690.44;;;7.59;100.00
977;BME280;477;51.436;7.292;2024-01-30T07:27:42;101699.03;;;7.63;100.00
977;BME280;477;51.436;7.292;2024-01-30T07:30:12;101694.28;;;7.93;100.00
977;BME280;477;51.436;7.292;2024-01-30T07:32:40;101702.41;;;7.67;100.00
977;BME280;477;51.436;7.292;2024-01-30T07:35:10;101699.28;;;8.06;100.00
977;BME280;477;51.436;7.292;2024-01-30T07:37:39;101706.47;;;7.86;100.00
977;BME280;477;51.436;7.292;2024-01-30T07:40:11;101717.34;;;8.13;100.00
977;BME280;477;51.436;7.292;2024-01-30T07:42:39;101712.13;;;8.16;100.00
977;BME280;477;51.436;7.292;2024-01-30T07:45:12;101711.34;;;8.07;100.00
977;BME280;477;51.436;7.292;2024-01-30T07:47:41;101705.41;;;8.01;100.00
977;BME280;477;51.436;7.292;2024-01-30T07:50:10;101709.53;;;8.16;100.00
977;BME280;477;51.436;7.292;2024-01-30T07:52:39;101704.91;;;8.33;100.00
977;BME280;477;51.436;7.292;2024-01-30T07:55:09;101704.19;;;8.23;100.00
977;BME280;477;51.436;7.292;2024-01-30T07:57:39;101701.44;;;8.37;100.00
977;BME280;477;51.436;7.292;2024-01-30T08:00:10;101704.25;;;8.20;100.00
977;BME280;477;51.436;7.292;2024-01-30T08:02:39;101714.50;;;8.28;100.00
977;BME280;477;51.436;7.292;2024-01-30T08:05:07;101703.94;;;8.40;100.00
977;BME280;477;51.436;7.292;2024-01-30T08:07:38;101718.53;;;8.49;100.00
977;BME280;477;51.436;7.292;2024-01-30T08:10:10;101714.09;;;8.55;100.00
977;BME280;477;51.436;7.292;2024-01-30T08:12:39;101714.03;;;8.58;100.00
977;BME280;477;51.436;7.292;2024-01-30T08:15:09;101713.47;;;8.40;100.00
977;BME280;477;51.436;7.292;2024-01-30T08:17:37;101726.69;;;8.78;100.00
977;BME280;477;51.436;7.292;2024-01-30T08:20:08;101724.28;;;8.68;100.00
977;BME280;477;51.436;7.292;2024-01-30T08:22:41;101715.59;;;8.69;100.00
977;BME280;477;51.436;7.292;2024-01-30T08:25:11;101726.91;;;8.65;100.00
977;BME280;477;51.436;7.292;2024-01-30T08:27:40;101724.22;;;8.71;100.00
977;BME280;477;51.436;7.292;2024-01-30T08:30:10;101719.50;;;8.93;100.00
977;BME280;477;51.436;7.292;2024-01-30T08:32:40;101721.97;;;9.00;100.00
977;BME280;477;51.436;7.292;2024-01-30T08:35:09;101720.94;;;9.09;100.00
977;BME280;477;51.436;7.292;2024-01-30T08:37:41;101715.34;;;8.84;100.00
977;BME280;477;51.436;7.292;2024-01-30T08:40:12;101717.78;;;8.93;100.00
977;BME280;477;51.436;7.292;2024-01-30T08:42:41;101716.94;;;8.91;100.00
977;BME280;477;51.436;7.292;2024-01-30T08:45:12;101725.56;;;8.93;100.00
977;BME280;477;51.436;7.292;2024-01-30T08:47:41;101728.97;;;8.95;100.00
977;BME280;477;51.436;7.292;2024-01-30T08:50:10;101730.66;;;8.99;100.00
977;BME280;477;51.436;7.292;2024-01-30T08:52:38;101722.78;;;9.02;100.00
977;BME280;477;51.436;7.292;2024-01-30T08:55:08;101717.28;;;9.19;100.00
977;BME280;477;51.436;7.292;2024-01-30T08:57:38;101729.44;;;9.17;100.00
977;BME280;477;51.436;7.292;2024-01-30T09:00:08;101733.34;;;8.93;100.00
977;BME280;477;51.436;7.292;2024-01-30T09:02:37;101727.25;;;9.40;100.00
977;BME280;477;51.436;7.292;2024-01-30T09:05:07;101735.31;;;9.27;100.00
977;BME280;477;51.436;7.292;2024-01-30T09:07:35;101729.63;;;9.50;100.00
977;BME280;477;51.436;7.292;2024-01-30T09:10:06;101734.06;;;9.45;100.00
977;BME280;477;51.436;7.292;2024-01-30T09:12:40;101726.84;;;9.59;100.00
977;BME280;477;51.436;7.292;2024-01-30T09:15:10;101737.22;;;9.60;100.00
977;BME280;477;51.436;7.292;2024-01-30T09:17:38;101737.03;;;9.71;100.00
977;BME280;477;51.436;7.292;2024-01-30T09:20:08;101742.38;;;9.63;100.00
977;BME280;477;51.436;7.292;2024-01-30T09:22:38;101750.78;;;9.76;100.00
977;BME280;477;51.436;7.292;2024-01-30T09:25:07;101753.03;;;9.51;100.00
977;BME280;477;51.436;7.292;2024-01-30T09:27:37;101751.38;;;9.89;100.00
977;BME280;477;51.436;7.292;2024-01-30T09:30:10;101759.59;;;10.09;100.00
977;BME280;477;51.436;7.292;2024-01-30T09:32:40;101768.81;;;9.84;100.00
977;BME280;477;51.436;7.292;2024-01-30T09:35:11;101766.50;;;9.72;100.00
977;BME280;477;51.436;7.292;2024-01-30T09:37:44;101777.88;;;9.64;100.00
977;BME280;477;51.436;7.292;2024-01-30T09:40:13;101775.88;;;9.79;100.00
977;BME280;477;51.436;7.292;2024-01-30T09:42:47;101778.50;;;9.76;100.00
977;BME280;477;51.436;7.292;2024-01-30T09:45:19;101773.88;;;9.90;100.00
977;BME280;477;51.436;7.292;2024-01-30T09:47:49;101767.34;;;9.71;100.00
977;BME280;477;51.436;7.292;2024-01-30T09:50:18;101760.28;;;9.77;100.00
977;BME280;477;51.436;7.292;2024-01-30T09:52:48;101767.03;;;9.86;100.00
977;BME280;477;51.436;7.292;2024-01-30T09:55:18;101766.34;;;9.78;100.00
977;BME280;477;51.436;7.292;2024-01-30T09:57:46;101766.97;;;9.89;100.00
977;BME280;477;51.436;7.292;2024-01-30T10:00:16;101759.31;;;9.81;100.00
977;BME280;477;51.436;7.292;2024-01-30T10:02:47;101759.03;;;9.95;100.00
977;BME280;477;51.436;7.292;2024-01-30T10:05:16;101755.47;;;9.99;100.00
977;BME280;477;51.436;7.292;2024-01-30T10:07:56;101752.59;;;10.11;100.00
977;BME280;477;51.436;7.292;2024-01-30T10:10:25;101759.69;;;10.05;100.00
977;BME280;477;51.436;7.292;2024-01-30T10:12:54;101759.38;;;10.18;100.00
977;BME280;477;51.436;7.292;2024-01-30T10:15:23;101761.13;;;10.18;100.00
977;BME280;477;51.436;7.292;2024-01-30T10:17:54;101757.56;;;10.22;100.00
977;BME280;477;51.436;7.292;2024-01-30T10:20:25;101750.31;;;10.36;100.00
977;BME280;477;51.436;7.292;2024-01-30T10:22:55;101753.13;;;10.29;100.00
977;BME280;477;51.436;7.292;2024-01-30T10:25:25;101757.13;;;10.42;100.00
977;BME280;477;51.436;7.292;2024-01-30T10:27:54;101744.94;;;10.44;100.00
977;BME280;477;51.436;7.292;2024-01-30T10:30:27;101750.09;;;10.81;100.00
977;BME280;477;51.436;7.292;2024-01-30T10:32:58;101760.63;;;10.75;100.00
977;BME280;477;51.436;7.292;2024-01-30T10:35:26;101756.69;;;10.60;100.00
977;BME280;477;51.436;7.292;2024-01-30T10:37:57;101759.34;;;10.57;100.00
977;BME280;477;51.436;7.292;2024-01-30T10:40:28;101765.63;;;10.84;100.00
977;BME280;477;51.436;7.292;2024-01-30T10:43:01;101753.44;;;10.86;100.00
977;BME280;477;51.436;7.292;2024-01-30T10:45:31;101753.84;;;10.69;100.00
977;BME280;477;51.436;7.292;2024-01-30T10:48:04;101756.00;;;10.88;100.00
977;BME280;477;51.436;7.292;2024-01-30T10:50:35;101750.19;;;10.77;100.00
977;BME280;477;51.436;7.292;2024-01-30T10:53:18;101750.88;;;11.16;100.00
977;BME280;477;51.436;7.292;2024-01-30T10:55:48;101759.41;;;10.90;100.00
977;BME280;477;51.436;7.292;2024-01-30T10:58:21;101769.25;;;11.11;100.00
977;BME280;477;51.436;7.292;2024-01-30T11:00:51;101758.38;;;10.95;100.00
977;BME280;477;51.436;7.292;2024-01-30T11:03:22;101759.16;;;11.32;100.00
977;BME280;477;51.436;7.292;2024-01-30T11:05:51;101766.00;;;11.36;100.00
977;BME280;477;51.436;7.292;2024-01-30T11:08:24;101761.75;;;11.32;100.00
977;BME280;477;51.436;7.292;2024-01-30T11:10:56;101759.31;;;11.57;100.00
977;BME280;477;51.436;7.292;2024-01-30T11:13:27;101765.78;;;12.04;100.00
977;BME280;477;51.436;7.292;2024-01-30T11:16:00;101763.75;;;12.14;100.00
977;BME280;477;51.436;7.292;2024-01-30T11:18:32;101769.28;;;12.03;100.00
977;BME280;477;51.436;7.292;2024-01-30T11:21:04;101768.03;;;12.16;100.00
977;BME280;477;51.436;7.292;2024-01-30T11:23:34;101770.81;;;12.10;100.00
977;BME280;477;51.436;7.292;2024-01-30T11:26:04;101766.66;;;12.31;100.00
977;BME280;477;51.436;7.292;2024-01-30T11:28:33;101760.72;;;12.27;100.00
977;BME280;477;51.436;7.292;2024-01-30T11:31:06;101770.25;;;12.28;100.00
977;BME280;477;51.436;7.292;2024-01-30T11:33:37;101767.44;;;12.35;100.00
977;BME280;477;51.436;7.292;2024-01-30T11:36:07;101773.09;;;12.21;100.00
977;BME280;477;51.436;7.292;2024-01-30T11:38:37;101770.47;;;12.21;100.00
977;BME280;477;51.436;7.292;2024-01-30T11:41:08;101767.25;;;12.41;100.00
977;BME280;477;51.436;7.292;2024-01-30T11:43:37;101759.88;;;12.25;100.00
977;BME280;477;51.436;7.292;2024-01-30T11:46:06;101762.97;;;12.10;100.00
977;BME280;477;51.436;7.292;2024-01-30T11:48:38;101764.13;;;12.30;100.00
977;BME280;477;51.436;7.292;2024-01-30T11:51:07;101762.16;;;12.36;100.00
977;BME280;477;51.436;7.292;2024-01-30T11:53:35;101773.13;;;12.19;100.00
977;BME280;477;51.436;7.292;2024-01-30T11:56:07;101775.63;;;12.50;100.00
977;BME280;477;51.436;7.292;2024-01-30T11:58:37;101779.38;;;12.42;100.00
977;BME280;477;51.436;7.292;2024-01-30T12:01:06;101776.25;;;12.59;100.00
977;BME280;477;51.436;7.292;2024-01-30T12:03:37;101783.53;;;12.75;100.00
977;BME280;477;51.436;7.292;2024-01-30T12:06:06;101777.31;;;12.25;100.00
977;BME280;477;51.436;7.292;2024-01-30T12:08:36;101777.81;;;12.38;100.00
977;BME280;477;51.436;7.292;2024-01-30T12:11:07;101778.19;;;12.52;100.00
977;BME280;477;51.436;7.292;2024-01-30T12:13:36;101784.06;;;12.32;100.00
977;BME280;477;51.436;7.292;2024-01-30T12:16:06;101780.97;;;12.74;100.00
977;BME280;477;51.436;7.292;2024-01-30T12:18:38;101787.25;;;12.68;100.00
977;BME280;477;51.436;7.292;2024-01-30T12:21:06;101786.72;;;12.59;100.00
977;BME280;477;51.436;7.292;2024-01-30T12:23:36;101787.72;;;12.54;100.00
977;BME280;477;51.436;7.292;2024-01-30T12:26:05;101781.50;;;12.31;100.00
977;BME280;477;51.436;7.292;2024-01-30T12:28:34;101783.47;;;12.50;100.00
977;BME280;477;51.436;7.292;2024-01-30T12:31:03;101788.63;;;12.25;100.00
977;BME280;477;51.436;7.292;2024-01-30T12:33:32;101774.28;;;12.39;100.00
977;BME280;477;51.436;7.292;2024-01-30T12:36:03;101784.59;;;12.43;100.00
977;BME280;477;51.436;7.292;2024-01-30T12:38:33;101785.66;;;12.36;100.00
977;BME280;477;51.436;7.292;2024-01-30T12:41:02;101786.03;;;12.52;100.00
977;BME280;477;51.436;7.292;2024-01-30T12:43:32;101788.63;;;12.52;100.00
977;BME280;477;51.436;7.292;2024-01-30T12:46:06;101785.09;;;12.26;100.00
977;BME280;477;51.436;7.292;2024-01-30T12:48:35;101781.69;;;12.24;100.00
977;BME280;477;51.436;7.292;2024-01-30T12:51:06;101787.88;;;12.22;100.00
977;BME280;477;51.436;7.292;2024-01-30T12:53:34;101780.34;;;12.39;100.00
977;BME280;477;51.436;7.292;2024-01-30T12:56:03;101778.16;;;12.25;100.00
977;BME280;477;51.436;7.292;2024-01-30T12:58:32;101772.22;;;12.20;100.00
977;BME280;477;51.436;7.292;2024-01-30T13:01:01;101775.69;;;12.21;100.00
977;BME280;477;51.436;7.292;2024-01-30T13:03:29;101772.56;;;12.38;100.00
977;BME280;477;51.436;7.292;2024-01-30T13:05:59;101780.75;;;12.27;100.00
977;BME280;477;51.436;7.292;2024-01-30T13:08:29;101783.19;;;12.32;100.00
977;BME280;477;51.436;7.292;2024-01-30T13:10:58;101781.09;;;12.16;100.00
977;BME280;477;51.436;7.292;2024-01-30T13:13:27;101771.16;;;12.27;100.00
977;BME280;477;51.436;7.292;2024-01-30T13:15:55;101786.78;;;12.29;100.00
977;BME280;477;51.436;7.292;2024-01-30T13:18:24;101791.66;;;12.40;100.00
977;BME280;477;51.436;7.292;2024-01-30T13:20:53;101785.28;;;12.20;100.00
977;BME280;477;51.436;7.292;2024-01-30T13:23:22;101795.13;;;12.40;100.00
977;BME280;477;51.436;7.292;2024-01-30T13:25:52;101788.75;;;12.49;100.00
977;BME280;477;51.436;7.292;2024-01-30T13:28:21;101781.97;;;12.43;100.00
977;BME280;477;51.436;7.292;2024-01-30T13:30:50;101792.16;;;12.51;100.00
977;BME280;477;51.436;7.292;2024-01-30T13:33:19;101792.28;;;12.48;100.00
977;BME280;477;51.436;7.292;2024-01-30T13:35:48;101798.97;;;12.28;100.00
977;BME280;477;51.436;7.292;2024-01-30T13:38:16;101794.41;;;12.35;100.00
977;BME280;477;51.436;7.292;2024-01-30T13:40:45;101800.34;;;12.40;100.00
977;BME280;477;51.436;7.292;2024-01-30T13:43:15;101801.16;;;12.14;100.00